Back to Top

Language: 

My Weather Underground Personal Weather Station Historical Data with Graphs...

Delerius Weather Station Historical Data
Daily Summary for May 27, 2017 Units:  English    Metric   Both
« Previous Day
Next Day »
Daily Weekly Monthly Yearly Custom
  High: Low: Average:
Temperature: 78.3 °F 52.0 °F 63.3 °F
Dew Point: 67.0 °F 50.0 °F 57 °F
Humidity: 95 % 56 % 81 %
Wind Speed: 19.0 mph 0.0 mph 6.5 mph
Wind Gust: 35.0 mph - -
Wind:- - South
Pressure: 29.97 in 29.74 in -
Precipitation: 0.03 in    
Historical Graphs
 
 
Tabular Data for May 27, 2017
Time Temperature Dew Point Pressure Wind Wind Speed Wind Gust Humidity Rainfall Rate (Hourly) solar Conditions
00:01 61.9 °F 56.0 °F 29.97 in Calm     81 % 0.00 in 0 W/m2
00:03 61.9 °F 56.0 °F 29.97 in Calm     81 % 0.00 in 0 W/m2
00:08 61.5 °F 55.6 °F 29.97 in Calm     81 % 0.00 in 0 W/m2
00:13 61.3 °F 55.8 °F 29.97 in Calm     82 % 0.00 in 0 W/m2
00:18 61.2 °F 56.0 °F 29.96 in Calm     83 % 0.00 in 0 W/m2
00:23 61.0 °F 55.8 °F 29.96 in Calm     83 % 0.00 in 0 W/m2
00:28 60.6 °F 55.4 °F 29.96 in Calm     83 % 0.00 in 0 W/m2
00:34 60.6 °F 55.8 °F 29.96 in Calm     84 % 0.00 in 0 W/m2
00:39 60.4 °F 55.6 °F 29.96 in Calm     84 % 0.00 in 0 W/m2
00:44 60.3 °F 55.4 °F 29.96 in Calm     84 % 0.00 in 0 W/m2
00:49 60.1 °F 55.6 °F 29.96 in Calm     85 % 0.00 in 0 W/m2
00:54 59.9 °F 55.4 °F 29.96 in Calm     85 % 0.00 in 0 W/m2
00:59 59.7 °F 55.2 °F 29.95 in Calm     85 % 0.00 in 0 W/m2
01:04 59.5 °F 55.3 °F 29.95 in Calm   2.0 mph 86 % 0.00 in 0 W/m2
01:10 59.7 °F 55.8 °F 29.95 in South 1.0 mph 4.0 mph 87 % 0.00 in 0 W/m2
01:15 59.7 °F 55.8 °F 29.95 in South 1.0 mph 4.0 mph 87 % 0.00 in 0 W/m2
01:20 59.7 °F 55.8 °F 29.95 in South 1.0 mph 3.0 mph 87 % 0.00 in 0 W/m2
01:25 59.7 °F 55.8 °F 29.95 in Calm   2.0 mph 87 % 0.00 in 0 W/m2
01:30 59.7 °F 55.8 °F 29.95 in Calm   2.0 mph 87 % 0.00 in 0 W/m2
01:35 59.5 °F 55.3 °F 29.95 in Calm     86 % 0.00 in 0 W/m2
01:40 59.2 °F 55.0 °F 29.95 in Calm     86 % 0.00 in 0 W/m2
01:45 58.8 °F 54.6 °F 29.95 in Calm     86 % 0.00 in 0 W/m2
01:50 58.6 °F 54.5 °F 29.94 in Calm     86 % 0.00 in 0 W/m2
01:55 58.5 °F 54.6 °F 29.94 in Calm     87 % 0.00 in 0 W/m2
02:00 58.3 °F 54.4 °F 29.94 in Calm     87 % 0.00 in 0 W/m2
02:05 57.9 °F 54.1 °F 29.94 in Calm     87 % 0.00 in 0 W/m2
02:10 57.7 °F 53.9 °F 29.94 in Calm     87 % 0.00 in 0 W/m2
02:15 57.4 °F 53.9 °F 29.94 in Calm     88 % 0.00 in 0 W/m2
02:20 57.0 °F 53.5 °F 29.94 in Calm     88 % 0.00 in 0 W/m2
02:25 57.0 °F 53.8 °F 29.94 in Calm     89 % 0.00 in 0 W/m2
02:30 56.8 °F 53.6 °F 29.93 in Calm     89 % 0.00 in 0 W/m2
02:35 56.7 °F 53.5 °F 29.93 in Calm     89 % 0.00 in 0 W/m2
02:40 56.5 °F 53.6 °F 29.93 in Calm     90 % 0.00 in 0 W/m2
02:45 56.3 °F 53.1 °F 29.92 in Calm     89 % 0.00 in 0 W/m2
02:50 56.1 °F 53.2 °F 29.92 in Calm     90 % 0.00 in 0 W/m2
02:55 55.9 °F 53.0 °F 29.92 in Calm     90 % 0.00 in 0 W/m2
03:00 55.8 °F 52.9 °F 29.92 in Calm     90 % 0.00 in 0 W/m2
03:05 55.6 °F 52.7 °F 29.92 in Calm   1.0 mph 90 % 0.00 in 0 W/m2
03:11 55.4 °F 52.5 °F 29.92 in Calm   1.0 mph 90 % 0.00 in 0 W/m2
03:16 55.2 °F 52.3 °F 29.91 in Calm     90 % 0.00 in 0 W/m2
03:21 55.0 °F 52.2 °F 29.91 in Calm     90 % 0.00 in 0 W/m2
03:26 54.9 °F 52.3 °F 29.91 in Calm     91 % 0.00 in 0 W/m2
03:31 54.7 °F 52.1 °F 29.90 in Calm     91 % 0.00 in 0 W/m2
03:36 54.7 °F 52.1 °F 29.90 in Calm     91 % 0.00 in 0 W/m2
03:41 54.7 °F 52.1 °F 29.90 in Calm   2.0 mph 91 % 0.00 in 0 W/m2
03:46 54.5 °F 51.9 °F 29.90 in Calm   2.0 mph 91 % 0.00 in 0 W/m2
03:51 54.3 °F 51.7 °F 29.89 in Calm     91 % 0.00 in 0 W/m2
03:56 54.1 °F 51.6 °F 29.89 in Calm     91 % 0.00 in 0 W/m2
04:01 54.0 °F 51.7 °F 29.89 in Calm     92 % 0.00 in 0 W/m2
04:06 54.1 °F 51.9 °F 29.89 in Calm     92 % 0.00 in 0 W/m2
04:11 54.0 °F 51.7 °F 29.89 in Calm     92 % 0.00 in 0 W/m2
04:16 53.8 °F 51.5 °F 29.89 in Calm     92 % 0.00 in 0 W/m2
04:21 53.4 °F 51.2 °F 29.89 in Calm     92 % 0.00 in 0 W/m2
04:26 53.4 °F 51.2 °F 29.89 in Calm     92 % 0.00 in 0 W/m2
04:31 53.2 °F 51.0 °F 29.89 in Calm     92 % 0.00 in 0 W/m2
04:36 53.2 °F 51.0 °F 29.89 in Calm     92 % 0.00 in 0 W/m2
04:41 53.1 °F 50.8 °F 29.89 in Calm     92 % 0.00 in 0 W/m2
04:46 53.1 °F 50.8 °F 29.89 in Calm     92 % 0.00 in 0 W/m2
04:51 52.9 °F 50.9 °F 29.89 in Calm     93 % 0.00 in 5 W/m2
04:56 52.9 °F 50.6 °F 29.90 in Calm   2.0 mph 92 % 0.00 in 7 W/m2
05:01 52.5 °F 50.3 °F 29.90 in Calm   2.0 mph 92 % 0.00 in 9 W/m2
05:06 52.3 °F 50.1 °F 29.89 in Calm     92 % 0.00 in 11 W/m2
05:11 52.3 °F 50.4 °F 29.89 in Calm     93 % 0.00 in 12 W/m2
05:16 52.2 °F 50.2 °F 29.89 in Calm     93 % 0.00 in 14 W/m2
05:21 52.2 °F 50.2 °F 29.89 in Calm     93 % 0.00 in 16 W/m2
05:26 52.0 °F 50.0 °F 29.89 in Calm     93 % 0.00 in 19 W/m2
05:31 52.0 °F 50.0 °F 29.89 in Calm     93 % 0.00 in 21 W/m2
05:36 52.0 °F 50.0 °F 29.89 in Calm     93 % 0.00 in 25 W/m2
05:41 52.0 °F 50.0 °F 29.89 in Calm     93 % 0.00 in 26 W/m2
05:46 52.2 °F 50.5 °F 29.88 in Calm     94 % 0.00 in 28 W/m2
05:51 52.2 °F 50.5 °F 29.88 in Calm     94 % 0.00 in 32 W/m2
05:56 52.3 °F 50.7 °F 29.88 in Calm     94 % 0.00 in 33 W/m2
06:01 52.5 °F 50.8 °F 29.88 in Calm     94 % 0.00 in 84 W/m2
06:06 52.9 °F 51.2 °F 29.89 in Calm     94 % 0.00 in 88 W/m2
06:11 53.2 °F 51.8 °F 29.89 in Calm     95 % 0.00 in 90 W/m2
06:12 53.2 °F 51.8 °F 29.89 in Calm     95 % 0.00 in 90 W/m2
06:17 53.4 °F 51.7 °F 29.89 in Calm     94 % 0.00 in 113 W/m2
06:22 53.8 °F 52.1 °F 29.89 in Calm     94 % 0.00 in 81 W/m2
06:27 54.1 °F 52.5 °F 29.89 in Calm     94 % 0.00 in 93 W/m2
06:32 54.9 °F 53.5 °F 29.89 in Calm     95 % 0.00 in 90 W/m2
06:37 55.4 °F 53.7 °F 29.89 in Calm     94 % 0.00 in 109 W/m2
06:42 55.8 °F 54.1 °F 29.89 in Calm   2.0 mph 94 % 0.00 in 104 W/m2
06:47 55.9 °F 53.9 °F 29.89 in Calm   2.0 mph 93 % 0.00 in 130 W/m2
06:52 56.5 °F 54.5 °F 29.89 in Calm     93 % 0.00 in 132 W/m2
06:57 56.8 °F 54.8 °F 29.88 in Calm     93 % 0.00 in 130 W/m2
07:02 57.0 °F 55.0 °F 29.88 in Calm     93 % 0.00 in 130 W/m2
07:07 57.4 °F 55.1 °F 29.88 in Calm     92 % 0.00 in 156 W/m2
07:12 57.9 °F 55.6 °F 29.88 in Calm     92 % 0.00 in 229 W/m2
07:17 58.3 °F 55.7 °F 29.88 in Calm   1.0 mph 91 % 0.00 in 190 W/m2
07:22 58.6 °F 55.7 °F 29.88 in Calm   1.0 mph 90 % 0.00 in 174 W/m2
07:27 59.0 °F 56.1 °F 29.87 in Calm     90 % 0.00 in 144 W/m2
07:32 59.4 °F 56.1 °F 29.88 in Calm   1.0 mph 89 % 0.00 in 172 W/m2
07:37 59.7 °F 56.5 °F 29.87 in Calm   1.0 mph 89 % 0.00 in 206 W/m2
07:42 60.1 °F 56.5 °F 29.88 in Calm     88 % 0.00 in 366 W/m2
07:47 60.6 °F 57.0 °F 29.87 in Calm   2.0 mph 88 % 0.00 in 343 W/m2
07:52 61.5 °F 57.3 °F 29.86 in Calm   2.0 mph 86 % 0.00 in 381 W/m2
07:58 62.4 °F 57.2 °F 29.86 in Calm   5.0 mph 83 % 0.00 in 452 W/m2
08:03 63.1 °F 57.6 °F 29.87 in ESE 1.0 mph 5.0 mph 82 % 0.00 in 281 W/m2
08:08 63.1 °F 57.2 °F 29.87 in ENE 1.0 mph 4.0 mph 81 % 0.00 in 237 W/m2
08:13 63.0 °F 57.0 °F 29.86 in NE 1.0 mph 4.0 mph 81 % 0.00 in 199 W/m2
08:18 63.0 °F 57.0 °F 29.86 in ENE 1.0 mph 3.0 mph 81 % 0.00 in 221 W/m2
08:23 62.8 °F 56.9 °F 29.86 in SE 1.0 mph 4.0 mph 81 % 0.00 in 200 W/m2
08:28 62.8 °F 57.2 °F 29.86 in SE 1.0 mph 4.0 mph 82 % 0.00 in 274 W/m2
08:33 62.8 °F 57.2 °F 29.86 in Calm   3.0 mph 82 % 0.00 in 313 W/m2
08:38 63.1 °F 57.6 °F 29.86 in SE 1.0 mph 6.0 mph 82 % 0.00 in 485 W/m2
08:43 63.5 °F 57.6 °F 29.86 in SE 2.0 mph 6.0 mph 81 % 0.00 in 396 W/m2
08:48 63.9 °F 57.6 °F 29.86 in SE 2.0 mph 6.0 mph 80 % 0.00 in 411 W/m2
08:53 64.0 °F 57.4 °F 29.85 in ESE 2.0 mph 5.0 mph 79 % 0.00 in 415 W/m2
08:58 64.0 °F 57.4 °F 29.84 in ENE 1.0 mph 5.0 mph 79 % 0.00 in 329 W/m2
09:03 64.2 °F 57.6 °F 29.84 in East 2.0 mph 5.0 mph 79 % 0.00 in 274 W/m2
09:08 64.2 °F 57.6 °F 29.84 in ESE 1.0 mph 5.0 mph 79 % 0.00 in 264 W/m2
09:13 64.6 °F 57.6 °F 29.83 in SE 2.0 mph 7.0 mph 78 % 0.00 in 306 W/m2
09:18 64.8 °F 58.1 °F 29.83 in SE 2.0 mph 7.0 mph 79 % 0.00 in 348 W/m2
09:19 64.9 °F 58.3 °F 29.83 in SE 2.0 mph 7.0 mph 79 % 0.00 in 378 W/m2
09:24 65.1 °F 58.1 °F 29.82 in ESE 2.0 mph 7.0 mph 78 % 0.00 in 485 W/m2
09:29 65.5 °F 58.4 °F 29.82 in East 3.0 mph 7.0 mph 78 % 0.00 in 439 W/m2
09:34 65.8 °F 58.8 °F 29.82 in ENE 3.0 mph 8.0 mph 78 % 0.00 in 258 W/m2
09:39 65.8 °F 58.1 °F 29.82 in ESE 4.0 mph 9.0 mph 76 % 0.00 in 239 W/m2
09:44 66.0 °F 58.2 °F 29.83 in SE 4.0 mph 9.0 mph 76 % 0.00 in 278 W/m2
09:49 66.4 °F 58.9 °F 29.82 in ESE 2.0 mph 7.0 mph 77 % 0.00 in 663 W/m2
09:54 66.7 °F 58.9 °F 29.82 in East 3.0 mph 8.0 mph 76 % 0.00 in 466 W/m2
10:04 67.6 °F 58.7 °F 29.82 in SE 4.0 mph 8.0 mph 73 % 0.00 in 290 W/m2
10:09 67.6 °F 59.1 °F 29.83 in SSE 5.0 mph 9.0 mph 74 % 0.00 in 146 W/m2
10:14 67.5 °F 58.9 °F 29.84 in SSE 5.0 mph 10.0 mph 74 % 0.00 in 54 W/m2
10:19 66.9 °F 58.7 °F 29.84 in SSE 7.0 mph 14.0 mph 75 % 0.00 in 37 W/m2
10:24 66.6 °F 59.1 °F 29.82 in SSE 7.0 mph 14.0 mph 77 % 0.00 in 40 W/m2
10:29 65.7 °F 59.7 °F 29.80 in ESE 5.0 mph 11.0 mph 81 % 0.02 in 49 W/m2
10:34 65.1 °F 59.8 °F 29.79 in East 4.0 mph 9.0 mph 83 % 0.02 in 84 W/m2
10:39 64.8 °F 60.1 °F 29.79 in East 4.0 mph 10.0 mph 85 % 0.02 in 120 W/m2
10:44 64.4 °F 59.8 °F 29.79 in ESE 5.0 mph 10.0 mph 85 % 0.02 in 202 W/m2
10:46 64.4 °F 60.1 °F 29.79 in East 4.0 mph 8.0 mph 86 % 0.02 in 227 W/m2
10:51 64.6 °F 60.6 °F 29.79 in ESE 4.0 mph 7.0 mph 87 % 0.02 in 381 W/m2
10:56 64.9 °F 61.3 °F 29.79 in ESE 3.0 mph 7.0 mph 88 % 0.02 in 469 W/m2
11:01 65.7 °F 62.0 °F 29.79 in ESE 3.0 mph 7.0 mph 88 % 0.02 in 805 W/m2
11:11 67.3 °F 62.6 °F 29.79 in East 5.0 mph 11.0 mph 85 % 0.02 in 796 W/m2
11:16 68.2 °F 62.5 °F 29.80 in East 6.0 mph 11.0 mph 82 % 0.02 in 798 W/m2
11:21 68.7 °F 62.3 °F 29.79 in ESE 7.0 mph 12.0 mph 80 % 0.02 in 795 W/m2
11:26 69.3 °F 62.5 °F 29.79 in ESE 7.0 mph 12.0 mph 79 % 0.01 in 812 W/m2
11:31 70.0 °F 63.2 °F 29.79 in SE 5.0 mph 10.0 mph 79 % 0.00 in 821 W/m2
11:36 70.5 °F 63.0 °F 29.79 in SE 5.0 mph 9.0 mph 77 % 0.00 in 840 W/m2
11:41 71.4 °F 62.7 °F 29.79 in ESE 5.0 mph 10.0 mph 74 % 0.00 in 872 W/m2
11:46 72.0 °F 62.8 °F 29.78 in ESE 6.0 mph 11.0 mph 73 % 0.00 in 935 W/m2
11:51 72.5 °F 63.4 °F 29.78 in ESE 7.0 mph 11.0 mph 73 % 0.00 in 935 W/m2
11:56 72.7 °F 63.1 °F 29.78 in ESE 8.0 mph 15.0 mph 72 % 0.00 in 863 W/m2
12:01 73.0 °F 63.1 °F 29.78 in ESE 8.0 mph 15.0 mph 71 % 0.00 in 840 W/m2
12:06 73.4 °F 63.0 °F 29.78 in ESE 8.0 mph 14.0 mph 70 % 0.00 in 851 W/m2
12:11 73.8 °F 63.8 °F 29.78 in ESE 8.0 mph 13.0 mph 71 % 0.00 in 854 W/m2
12:16 73.9 °F 63.9 °F 29.78 in SE 6.0 mph 12.0 mph 71 % 0.00 in 863 W/m2
12:21 74.5 °F 64.5 °F 29.78 in SE 6.0 mph 10.0 mph 71 % 0.00 in 879 W/m2
12:26 75.0 °F 64.6 °F 29.78 in SE 7.0 mph 11.0 mph 70 % 0.00 in 868 W/m2
12:31 75.4 °F 64.1 °F 29.78 in SE 8.0 mph 11.0 mph 68 % 0.00 in 881 W/m2
12:36 75.6 °F 64.3 °F 29.78 in SSE 9.0 mph 20.0 mph 68 % 0.00 in 882 W/m2
12:41 76.1 °F 64.3 °F 29.78 in SSE 8.0 mph 20.0 mph 67 % 0.00 in 896 W/m2
12:46 76.6 °F 64.9 °F 29.78 in SE 8.0 mph 18.0 mph 67 % 0.00 in 918 W/m2
12:51 76.8 °F 64.6 °F 29.77 in SE 9.0 mph 18.0 mph 66 % 0.00 in 918 W/m2
12:56 76.8 °F 64.6 °F 29.77 in SSE 9.0 mph 14.0 mph 66 % 0.00 in 1046 W/m2
13:01 77.7 °F 65.0 °F 29.76 in SSE 8.0 mph 14.0 mph 65 % 0.00 in 1048 W/m2
13:06 78.3 °F 64.2 °F 29.75 in SSE 8.0 mph 15.0 mph 62 % 0.00 in 116 W/m2
13:11 77.7 °F 63.7 °F 29.76 in SSE 8.0 mph 15.0 mph 62 % 0.00 in 137 W/m2
13:16 77.2 °F 67.0 °F 29.75 in SSE 8.0 mph 14.0 mph 71 % 0.01 in 98 W/m2
13:21 75.6 °F 65.9 °F 29.74 in SE 9.0 mph 16.0 mph 72 % 0.01 in 42 W/m2
13:23 75.0 °F 65.4 °F 29.75 in SE 10.0 mph 19.0 mph 72 % 0.01 in 42 W/m2
13:28 73.2 °F 65.2 °F 29.75 in SE 11.0 mph 20.0 mph 76 % 0.02 in 424 W/m2
13:33 72.3 °F 66.5 °F 29.75 in SE 11.0 mph 20.0 mph 82 % 0.02 in 1085 W/m2
13:38 73.0 °F 65.0 °F 29.74 in SSE 11.0 mph 27.0 mph 76 % 0.02 in 1020 W/m2
13:43 74.5 °F 63.2 °F 29.74 in South 15.0 mph 30.0 mph 68 % 0.02 in 1027 W/m2
13:48 75.2 °F 62.6 °F 29.74 in South 17.0 mph 35.0 mph 65 % 0.02 in 1013 W/m2
13:53 75.7 °F 62.7 °F 29.74 in South 16.0 mph 35.0 mph 64 % 0.02 in 636 W/m2
13:58 75.6 °F 61.6 °F 29.75 in South 15.0 mph 30.0 mph 62 % 0.02 in 468 W/m2
14:03 75.4 °F 62.4 °F 29.75 in South 15.0 mph 30.0 mph 64 % 0.02 in 821 W/m2
14:08 75.0 °F 60.7 °F 29.74 in South 16.0 mph 30.0 mph 61 % 0.02 in 376 W/m2
14:13 75.6 °F 60.7 °F 29.74 in South 15.0 mph 30.0 mph 60 % 0.02 in 1018 W/m2
14:18 76.1 °F 60.2 °F 29.74 in South 13.0 mph 28.0 mph 58 % 0.01 in 213 W/m2
14:23 76.1 °F 60.2 °F 29.74 in South 14.0 mph 28.0 mph 58 % 0.01 in 914 W/m2
14:28 76.3 °F 59.9 °F 29.74 in South 15.0 mph 27.0 mph 57 % 0.00 in 239 W/m2
14:33 75.9 °F 60.1 °F 29.75 in South 14.0 mph 27.0 mph 58 % 0.00 in 253 W/m2
14:38 76.1 °F 60.2 °F 29.75 in South 15.0 mph 27.0 mph 58 % 0.00 in 410 W/m2
14:43 75.7 °F 58.9 °F 29.75 in SSW 15.0 mph 27.0 mph 56 % 0.00 in 355 W/m2
14:48 75.4 °F 60.1 °F 29.75 in South 16.0 mph 30.0 mph 59 % 0.00 in 1000 W/m2
14:53 75.0 °F 59.2 °F 29.75 in SSW 18.0 mph 30.0 mph 58 % 0.00 in 443 W/m2
14:58 74.8 °F 59.5 °F 29.75 in SSW 16.0 mph 30.0 mph 59 % 0.00 in 316 W/m2
15:03 74.5 °F 59.2 °F 29.76 in SSW 16.0 mph 32.0 mph 59 % 0.00 in 343 W/m2
15:08 73.9 °F 58.7 °F 29.76 in SSW 18.0 mph 32.0 mph 59 % 0.00 in 325 W/m2
15:13 73.0 °F 60.1 °F 29.76 in SSW 18.0 mph 31.0 mph 64 % 0.00 in 443 W/m2
15:18 72.9 °F 60.4 °F 29.76 in SSW 19.0 mph 30.0 mph 65 % 0.00 in 464 W/m2
15:23 72.0 °F 59.6 °F 29.77 in SSW 19.0 mph 31.0 mph 65 % 0.00 in 388 W/m2
15:28 71.2 °F 58.9 °F 29.76 in SSW 19.0 mph 34.0 mph 65 % 0.00 in 269 W/m2
15:34 70.7 °F 59.2 °F 29.77 in SSW 18.0 mph 34.0 mph 67 % 0.00 in 225 W/m2
15:39 70.0 °F 58.9 °F 29.77 in SSW 16.0 mph 31.0 mph 68 % 0.00 in 385 W/m2
15:44 70.0 °F 59.3 °F 29.77 in SSW 15.0 mph 31.0 mph 69 % 0.00 in 188 W/m2
15:49 69.1 °F 58.5 °F 29.78 in SSW 17.0 mph 31.0 mph 69 % 0.00 in 86 W/m2
15:54 68.4 °F 58.2 °F 29.78 in SSW 16.0 mph 28.0 mph 70 % 0.00 in 158 W/m2
15:59 67.6 °F 58.3 °F 29.79 in SSW 15.0 mph 26.0 mph 72 % 0.00 in 128 W/m2
16:04 67.1 °F 58.2 °F 29.79 in SSW 16.0 mph 28.0 mph 73 % 0.00 in 53 W/m2
16:09 66.6 °F 58.0 °F 29.79 in SSW 14.0 mph 28.0 mph 74 % 0.00 in 56 W/m2
16:14 66.0 °F 57.9 °F 29.79 in SSW 12.0 mph 28.0 mph 75 % 0.00 in 81 W/m2
16:19 65.8 °F 58.1 °F 29.79 in SSW 10.0 mph 20.0 mph 76 % 0.00 in 70 W/m2
16:24 65.1 °F 57.7 °F 29.79 in SSW 12.0 mph 24.0 mph 77 % 0.00 in 88 W/m2
16:29 64.9 °F 57.9 °F 29.78 in SSW 13.0 mph 25.0 mph 78 % 0.00 in 144 W/m2
16:34 64.9 °F 57.9 °F 29.78 in SSW 12.0 mph 25.0 mph 78 % 0.00 in 104 W/m2
16:39 64.9 °F 57.6 °F 29.79 in SSW 12.0 mph 22.0 mph 77 % 0.00 in 141 W/m2
16:44 64.9 °F 57.9 °F 29.78 in SSW 13.0 mph 25.0 mph 78 % 0.00 in 248 W/m2
16:49 65.3 °F 58.3 °F 29.78 in SSW 11.0 mph 25.0 mph 78 % 0.00 in 250 W/m2
16:54 65.7 °F 58.3 °F 29.79 in SSW 11.0 mph 22.0 mph 77 % 0.00 in 148 W/m2
16:59 65.5 °F 58.1 °F 29.79 in SSW 13.0 mph 26.0 mph 77 % 0.00 in 121 W/m2
17:04 64.9 °F 57.9 °F 29.79 in SSW 14.0 mph 26.0 mph 78 % 0.00 in 91 W/m2
17:09 64.8 °F 58.1 °F 29.78 in SSW 12.0 mph 22.0 mph 79 % 0.00 in 118 W/m2
17:14 64.8 °F 58.1 °F 29.78 in SSW 10.0 mph 22.0 mph 79 % 0.00 in 114 W/m2
17:19 64.8 °F 58.1 °F 29.78 in SSW 10.0 mph 22.0 mph 79 % 0.00 in 116 W/m2
17:24 64.6 °F 57.9 °F 29.79 in SSW 12.0 mph 26.0 mph 79 % 0.00 in 107 W/m2
17:29 64.6 °F 57.9 °F 29.79 in SW 12.0 mph 26.0 mph 79 % 0.00 in 107 W/m2
17:34 64.6 °F 57.9 °F 29.79 in SW 12.0 mph 28.0 mph 79 % 0.00 in 255 W/m2
17:39 64.6 °F 57.9 °F 29.79 in SW 14.0 mph 28.0 mph 79 % 0.00 in 279 W/m2
17:44 64.8 °F 58.1 °F 29.79 in SW 13.0 mph 23.0 mph 79 % 0.00 in 148 W/m2
17:50 64.8 °F 57.7 °F 29.80 in SW 12.0 mph 21.0 mph 78 % 0.00 in 116 W/m2
17:55 64.8 °F 57.7 °F 29.80 in SW 12.0 mph 23.0 mph 78 % 0.00 in 179 W/m2
18:00 64.9 °F 57.9 °F 29.80 in SW 11.0 mph 23.0 mph 78 % 0.00 in 149 W/m2
18:05 65.1 °F 58.1 °F 29.80 in SW 8.0 mph 19.0 mph 78 % 0.00 in 279 W/m2
18:10 65.7 °F 58.3 °F 29.79 in SW 8.0 mph 20.0 mph 77 % 0.00 in 675 W/m2
18:15 66.0 °F 58.2 °F 29.80 in WSW 12.0 mph 28.0 mph 76 % 0.00 in 543 W/m2
18:20 65.8 °F 58.1 °F 29.79 in SW 15.0 mph 28.0 mph 76 % 0.00 in 232 W/m2
18:25 65.5 °F 57.7 °F 29.80 in SW 14.0 mph 27.0 mph 76 % 0.00 in 97 W/m2
18:30 65.1 °F 57.7 °F 29.80 in SW 13.0 mph 23.0 mph 77 % 0.00 in 65 W/m2
18:35 64.9 °F 57.9 °F 29.80 in SW 12.0 mph 21.0 mph 78 % 0.00 in 91 W/m2
18:40 64.8 °F 57.7 °F 29.80 in WSW 10.0 mph 22.0 mph 78 % 0.00 in 97 W/m2
18:45 64.6 °F 57.9 °F 29.81 in SW 11.0 mph 23.0 mph 79 % 0.00 in 93 W/m2
18:50 64.6 °F 57.9 °F 29.80 in SW 11.0 mph 23.0 mph 79 % 0.00 in 146 W/m2
18:55 64.6 °F 57.9 °F 29.80 in SW 12.0 mph 22.0 mph 79 % 0.00 in 146 W/m2
19:00 64.8 °F 58.1 °F 29.81 in SW 13.0 mph 22.0 mph 79 % 0.00 in 165 W/m2
19:05 64.6 °F 57.6 °F 29.81 in SW 13.0 mph 26.0 mph 78 % 0.00 in 114 W/m2
19:10 64.6 °F 57.6 °F 29.81 in SW 14.0 mph 26.0 mph 78 % 0.00 in 102 W/m2
19:15 64.6 °F 57.6 °F 29.81 in SW 14.0 mph 22.0 mph 78 % 0.00 in 264 W/m2
19:20 64.6 °F 57.6 °F 29.81 in SW 13.0 mph 22.0 mph 78 % 0.00 in 127 W/m2
19:25 64.6 °F 57.2 °F 29.81 in SW 14.0 mph 28.0 mph 77 % 0.00 in 86 W/m2
19:30 64.4 °F 57.4 °F 29.81 in SSW 14.0 mph 28.0 mph 78 % 0.00 in 241 W/m2
19:35 64.6 °F 57.6 °F 29.81 in SSW 12.0 mph 23.0 mph 78 % 0.00 in 190 W/m2
19:40 64.6 °F 57.6 °F 29.82 in SSW 10.0 mph 20.0 mph 78 % 0.00 in 190 W/m2
19:45 64.6 °F 57.2 °F 29.82 in SW 10.0 mph 22.0 mph 77 % 0.00 in 58 W/m2
19:50 64.6 °F 57.2 °F 29.82 in SW 11.0 mph 23.0 mph 77 % 0.00 in 51 W/m2
19:55 64.2 °F 57.2 °F 29.82 in SSW 11.0 mph 23.0 mph 78 % 0.00 in 16 W/m2
20:00 64.0 °F 56.7 °F 29.83 in SSW 11.0 mph 22.0 mph 77 % 0.00 in 7 W/m2
20:05 63.9 °F 56.5 °F 29.83 in SW 10.0 mph 22.0 mph 77 % 0.00 in 5 W/m2
20:15 63.7 °F 56.3 °F 29.83 in SW 7.0 mph 12.0 mph 77 % 0.00 in 5 W/m2
20:20 63.7 °F 56.3 °F 29.83 in SW 5.0 mph 11.0 mph 77 % 0.00 in 5 W/m2
20:25 63.7 °F 56.3 °F 29.84 in WSW 4.0 mph 12.0 mph 77 % 0.00 in 7 W/m2
20:30 63.5 °F 56.2 °F 29.84 in SW 7.0 mph 19.0 mph 77 % 0.00 in 9 W/m2
20:35 63.3 °F 56.3 °F 29.84 in SW 9.0 mph 19.0 mph 78 % 0.00 in 11 W/m2
20:40 63.1 °F 56.2 °F 29.84 in SW 9.0 mph 16.0 mph 78 % 0.00 in 5 W/m2
20:45 63.1 °F 56.2 °F 29.84 in SW 7.0 mph 12.0 mph 78 % 0.00 in 5 W/m2
20:50 63.0 °F 56.0 °F 29.84 in SSW 7.0 mph 13.0 mph 78 % 0.00 in 0 W/m2
20:55 63.0 °F 56.0 °F 29.84 in SW 8.0 mph 20.0 mph 78 % 0.00 in 0 W/m2
21:00 63.0 °F 56.0 °F 29.85 in SW 7.0 mph 20.0 mph 78 % 0.00 in 5 W/m2
21:05 62.8 °F 55.8 °F 29.85 in WSW 7.0 mph 14.0 mph 78 % 0.00 in 0 W/m2
21:10 62.6 °F 55.6 °F 29.85 in SW 9.0 mph 20.0 mph 78 % 0.00 in 0 W/m2
21:11 62.6 °F 55.6 °F 29.85 in SW 9.0 mph 20.0 mph 78 % 0.00 in 0 W/m2
21:16 62.6 °F 55.6 °F 29.85 in SW 10.0 mph 20.0 mph 78 % 0.00 in 0 W/m2
21:21 62.4 °F 55.8 °F 29.85 in SW 10.0 mph 19.0 mph 79 % 0.00 in 0 W/m2
21:26 62.4 °F 55.8 °F 29.86 in WSW 10.0 mph 18.0 mph 79 % 0.00 in 0 W/m2
21:31 62.4 °F 55.8 °F 29.86 in WSW 9.0 mph 19.0 mph 79 % 0.00 in 0 W/m2
21:36 62.2 °F 56.0 °F 29.86 in SW 10.0 mph 19.0 mph 80 % 0.00 in 0 W/m2
21:41 62.2 °F 56.0 °F 29.86 in SW 10.0 mph 20.0 mph 80 % 0.00 in 0 W/m2
21:46 62.1 °F 55.8 °F 29.86 in SW 12.0 mph 24.0 mph 80 % 0.00 in 0 W/m2
21:51 62.1 °F 55.8 °F 29.86 in SW 13.0 mph 24.0 mph 80 % 0.00 in 0 W/m2
21:56 61.9 °F 55.6 °F 29.86 in SW 13.0 mph 23.0 mph 80 % 0.00 in 0 W/m2
22:01 61.9 °F 55.6 °F 29.86 in SW 13.0 mph 23.0 mph 80 % 0.00 in 0 W/m2
22:06 61.7 °F 55.8 °F 29.86 in SW 14.0 mph 28.0 mph 81 % 0.00 in 0 W/m2
22:11 61.5 °F 55.6 °F 29.86 in SW 15.0 mph 28.0 mph 81 % 0.00 in 0 W/m2
22:16 61.3 °F 55.5 °F 29.86 in SW 14.0 mph 24.0 mph 81 % 0.00 in 0 W/m2
22:18 61.3 °F 55.5 °F 29.86 in SW 14.0 mph 24.0 mph 81 % 0.00 in 0 W/m2
22:23 61.3 °F 55.8 °F 29.86 in SW 12.0 mph 24.0 mph 82 % 0.00 in 0 W/m2
22:28 61.3 °F 55.8 °F 29.86 in SW 12.0 mph 24.0 mph 82 % 0.00 in 0 W/m2
22:33 61.3 °F 55.8 °F 29.86 in SW 12.0 mph 24.0 mph 82 % 0.00 in 0 W/m2
22:38 61.3 °F 55.8 °F 29.87 in SW 11.0 mph 22.0 mph 82 % 0.00 in 0 W/m2
22:43 61.2 °F 55.6 °F 29.87 in SW 12.0 mph 22.0 mph 82 % 0.00 in 0 W/m2
22:48 61.2 °F 55.6 °F 29.88 in SW 12.0 mph 21.0 mph 82 % 0.00 in 0 W/m2
22:53 61.2 °F 56.0 °F 29.88 in SW 12.0 mph 25.0 mph 83 % 0.00 in 0 W/m2
22:58 61.0 °F 56.1 °F 29.88 in SW 12.0 mph 25.0 mph 84 % 0.00 in 0 W/m2
23:03 60.4 °F 55.6 °F 29.88 in SW 13.0 mph 25.0 mph 84 % 0.00 in 0 W/m2
23:08 60.3 °F 55.7 °F 29.88 in SW 13.0 mph 25.0 mph 85 % 0.00 in 0 W/m2
23:13 60.3 °F 56.1 °F 29.88 in SW 12.0 mph 23.0 mph 86 % 0.00 in 0 W/m2
23:18 60.1 °F 55.9 °F 29.88 in SW 12.0 mph 22.0 mph 86 % 0.00 in 0 W/m2
23:23 60.1 °F 55.9 °F 29.88 in SW 13.0 mph 22.0 mph 86 % 0.00 in 0 W/m2
23:28 60.1 °F 55.9 °F 29.88 in SW 12.0 mph 21.0 mph 86 % 0.00 in 0 W/m2
23:33 60.1 °F 55.9 °F 29.88 in SW 12.0 mph 21.0 mph 86 % 0.00 in 0 W/m2
23:38 60.1 °F 55.9 °F 29.89 in SW 12.0 mph 23.0 mph 86 % 0.00 in 0 W/m2
23:43 60.1 °F 55.9 °F 29.89 in SW 13.0 mph 23.0 mph 86 % 0.00 in 0 W/m2
23:48 60.1 °F 55.9 °F 29.89 in SW 13.0 mph 22.0 mph 86 % 0.00 in 0 W/m2
23:53 60.1 °F 55.9 °F 29.89 in SW 12.0 mph 22.0 mph 86 % 0.00 in 0 W/m2
Delerius-Weather
Compliments of Weather Underground - 2.25 mb

Data updates at regular intervals.